Time;durP1;ratioP1;P1;durP2;ratioP2;P2;SDS_P1;SDS_P2;PMS_P1;PMS_P2;Temp;Humidity;BMP_temperature;BMP_pressure;BME280_temperature;BME280_humidity;BME280_pressure;Samples;Min_cycle;Max_cycle;Signal;HPM_P1;HPM_P2
2023/04/18 00:01:01;;;;;;;14.93;6.18;;;;;;;8.60;70.81;101619.03;5064889;28;20049;-52
2023/04/18 00:03:28;;;;;;;16.70;7.05;;;;;;;8.59;70.93;101627.63;5063311;28;20064;-51
2023/04/18 00:05:56;;;;;;;17.98;7.18;;;;;;;8.58;70.78;101625.88;5068962;28;20051;-49
2023/04/18 00:08:23;;;;;;;20.40;8.32;;;;;;;8.60;71.07;101621.63;5069318;28;22164;-52
2023/04/18 00:10:50;;;;;;;18.70;7.40;;;;;;;8.60;71.00;101619.03;5062383;28;20724;-51
2023/04/18 00:13:17;;;;;;;15.23;6.30;;;;;;;8.58;71.01;101625.88;5064591;28;20037;-51
2023/04/18 00:15:45;;;;;;;19.98;7.53;;;;;;;8.60;71.47;101619.94;5065345;28;20053;-50
2023/04/18 00:18:14;;;;;;;17.95;7.38;;;;;;;8.61;71.56;101623.38;5061647;28;20045;-54
2023/04/18 00:20:41;;;;;;;17.83;7.43;;;;;;;8.60;71.79;101624.22;5062338;28;20104;-55
2023/04/18 00:23:12;;;;;;;18.15;7.90;;;;;;;8.63;71.82;101624.31;5061221;28;20076;-53
2023/04/18 00:25:39;;;;;;;18.02;8.07;;;;;;;8.64;71.00;101620.91;5064696;28;20134;-53
2023/04/18 00:28:06;;;;;;;16.50;7.63;;;;;;;8.63;71.45;101624.31;5063409;28;20076;-49
2023/04/18 00:30:33;;;;;;;19.17;7.38;;;;;;;8.64;71.73;101626.06;5065695;28;20504;-53
2023/04/18 00:32:59;;;;;;;18.20;6.80;;;;;;;8.66;71.67;101616.66;5061818;28;20044;-52
2023/04/18 00:35:26;;;;;;;18.13;7.00;;;;;;;8.65;71.38;101622.63;5067143;28;20050;-48
2023/04/18 00:37:52;;;;;;;20.63;8.07;;;;;;;8.68;71.78;101621.88;5066081;28;20106;-49
2023/04/18 00:40:19;;;;;;;17.23;7.90;;;;;;;8.70;71.78;101615.94;5065389;28;20724;-52
2023/04/18 00:42:46;;;;;;;24.25;8.77;;;;;;;8.71;71.52;101622.84;5063731;28;20109;-51
2023/04/18 00:45:12;;;;;;;21.13;8.13;;;;;;;8.69;71.91;101616.75;5068525;28;20131;-51
2023/04/18 00:47:39;;;;;;;20.60;7.50;;;;;;;8.65;71.86;101617.47;5064604;28;20111;-52
2023/04/18 00:50:07;;;;;;;22.90;8.68;;;;;;;8.66;72.33;101619.25;5066904;28;20052;-52
2023/04/18 00:52:34;;;;;;;17.83;7.55;;;;;;;8.64;72.22;101620.91;5068704;28;20082;-52
2023/04/18 00:55:05;;;;;;;25.60;8.65;;;;;;;8.65;71.79;101625.22;5066893;28;20544;-52
2023/04/18 00:57:32;;;;;;;24.98;7.55;;;;;;;8.62;71.58;101617.41;5066955;28;20515;-53
2023/04/18 01:00:00;;;;;;;22.00;8.48;;;;;;;8.63;71.94;101615.69;5061127;28;20124;-55
2023/04/18 01:02:29;;;;;;;21.77;7.95;;;;;;;8.64;72.14;101614.88;5062356;28;20419;-49
2023/04/18 01:04:58;;;;;;;22.40;7.53;;;;;;;8.65;71.58;101616.63;5059164;28;20392;-46
2023/04/18 01:07:25;;;;;;;17.30;7.03;;;;;;;8.65;71.81;101622.63;5060581;28;20094;-49
2023/04/18 01:09:52;;;;;;;20.13;8.02;;;;;;;8.66;72.15;101614.09;5061013;28;20052;-49
2023/04/18 01:12:19;;;;;;;23.40;8.43;;;;;;;8.65;72.15;101614.88;5057082;28;20511;-50
2023/04/18 01:14:46;;;;;;;24.58;8.82;;;;;;;8.63;72.57;101613.09;5056913;28;20055;-52
2023/04/18 01:17:12;;;;;;;23.15;7.97;;;;;;;8.61;71.81;101610.47;5059192;28;20140;-52
2023/04/18 01:19:39;;;;;;;20.67;7.97;;;;;;;8.58;72.16;101615.56;5059965;28;20059;-50
2023/04/18 01:22:06;;;;;;;23.67;8.05;;;;;;;8.58;72.34;101610.41;5060048;28;20079;-53
2023/04/18 01:24:33;;;;;;;22.45;8.27;;;;;;;8.51;73.45;101609.28;5060015;28;20068;-51
2023/04/18 01:27:01;;;;;;;20.17;8.15;;;;;;;8.48;73.45;101612.66;5064516;28;20080;-52
2023/04/18 01:29:28;;;;;;;21.38;8.40;;;;;;;8.47;72.53;101613.47;5052749;28;20067;-50
2023/04/18 01:31:55;;;;;;;19.48;7.60;;;;;;;8.39;73.26;101602.03;5053322;28;20049;-52
2023/04/18 01:34:21;;;;;;;20.77;7.72;;;;;;;8.38;74.16;101608.03;5065351;28;20094;-51
2023/04/18 01:36:48;;;;;;;23.48;7.88;;;;;;;8.41;72.93;101610.69;5063848;28;20045;-50
2023/04/18 01:39:17;;;;;;;19.95;8.32;;;;;;;8.41;72.77;101605.53;5055008;28;20040;-52
2023/04/18 01:41:43;;;;;;;21.73;8.43;;;;;;;8.40;73.45;101606.38;5057840;28;20052;-50
2023/04/18 01:44:10;;;;;;;22.83;8.85;;;;;;;8.42;72.53;101604.72;5067350;28;20075;-54
2023/04/18 01:46:37;;;;;;;23.98;8.45;;;;;;;8.43;72.77;101605.56;5061806;28;20065;-52
2023/04/18 01:49:05;;;;;;;22.95;7.43;;;;;;;8.43;72.58;101601.31;5058793;28;20076;-50
2023/04/18 01:51:31;;;;;;;20.83;8.30;;;;;;;8.44;73.58;101608.22;5056810;28;20133;-52
2023/04/18 01:53:58;;;;;;;19.88;8.43;;;;;;;8.43;73.31;101609.06;5060369;28;20052;-52
2023/04/18 01:56:25;;;;;;;19.20;7.85;;;;;;;8.43;72.95;101596.13;5063196;28;20044;-53
2023/04/18 01:58:51;;;;;;;21.10;7.70;;;;;;;8.41;73.64;101599.50;5062917;28;22236;-54
2023/04/18 02:01:18;;;;;;;20.10;8.25;;;;;;;8.40;73.24;101596.03;5057455;28;20492;-49
2023/04/18 02:03:45;;;;;;;17.15;7.05;;;;;;;8.38;73.28;101592.56;5066353;28;20078;-50
2023/04/18 02:06:12;;;;;;;21.80;8.90;;;;;;;8.35;74.30;101597.59;5058608;28;20242;-52
2023/04/18 02:08:39;;;;;;;19.48;8.55;;;;;;;8.36;74.26;101599.34;5061954;28;20136;-50
2023/04/18 02:11:05;;;;;;;18.48;7.40;;;;;;;8.34;73.39;101595.84;5059922;28;20137;-53
2023/04/18 02:13:32;;;;;;;27.10;9.13;;;;;;;8.35;73.48;101598.47;5060801;28;20739;-56
2023/04/18 02:15:59;;;;;;;20.58;7.90;;;;;;;8.36;73.98;101599.34;5059201;28;20076;-52
2023/04/18 02:18:26;;;;;;;22.75;8.65;;;;;;;8.38;73.84;101596.81;5061433;28;20040;-51
2023/04/18 02:20:52;;;;;;;20.95;7.72;;;;;;;8.33;73.99;101588.94;5065590;28;20052;-50
2023/04/18 02:23:19;;;;;;;14.70;6.32;;;;;;;8.33;73.44;101596.66;5063326;28;20136;-52
2023/04/18 02:25:45;;;;;;;23.33;8.70;;;;;;;8.36;73.00;101589.03;5060643;28;20048;-51
2023/04/18 02:28:12;;;;;;;22.45;7.82;;;;;;;8.39;73.91;101593.41;5060347;28;20516;-51
2023/04/18 02:30:39;;;;;;;21.73;7.82;;;;;;;8.39;73.80;101590.81;5056923;28;20135;-49
2023/04/18 02:33:05;;;;;;;25.52;8.85;;;;;;;8.36;73.51;101589.03;5061220;28;20098;-51
2023/04/18 02:35:32;;;;;;;33.63;9.60;;;;;;;8.36;74.12;101589.03;5065177;28;20600;-50
2023/04/18 02:37:59;;;;;;;22.38;8.05;;;;;;;8.33;73.67;101596.66;5061074;28;20786;-52
2023/04/18 02:40:25;;;;;;;21.38;8.10;;;;;;;8.30;74.04;101600.03;5058986;28;20079;-53
2023/04/18 02:42:52;;;;;;;24.40;9.25;;;;;;;8.30;73.52;101596.56;5062001;28;20736;-54
2023/04/18 02:45:18;;;;;;;23.05;7.95;;;;;;;8.30;74.41;101599.16;5057259;28;20145;-51
2023/04/18 02:47:45;;;;;;;24.08;7.85;;;;;;;8.34;73.20;101601.88;5059083;28;20087;-51
2023/04/18 02:50:21;;;;;;;22.63;7.85;;;;;;;8.32;74.03;101600.09;5067541;28;20060;-53
2023/04/18 02:52:48;;;;;;;21.27;8.43;;;;;;;8.31;74.46;101606.94;5060729;28;20059;-50
2023/04/18 02:55:15;;;;;;;21.83;7.72;;;;;;;8.26;74.56;101595.59;5061187;28;20044;-47
2023/04/18 02:57:41;;;;;;;24.50;9.52;;;;;;;8.25;73.96;101598.13;5064326;28;20083;-52
2023/04/18 03:00:09;;;;;;;22.40;8.98;;;;;;;8.25;73.82;101587.81;5059617;28;20045;-51
2023/04/18 03:02:35;;;;;;;22.20;7.78;;;;;;;8.22;75.09;101589.47;5064333;28;20542;-52
2023/04/18 03:05:02;;;;;;;20.88;7.65;;;;;;;8.15;75.25;101590.09;5062601;28;20491;-52
2023/04/18 03:07:29;;;;;;;22.58;8.10;;;;;;;8.17;74.96;101588.44;5064541;28;20063;-50
2023/04/18 03:09:56;;;;;;;20.67;8.02;;;;;;;8.19;74.83;101591.97;5064314;28;20051;-55
2023/04/18 03:12:23;;;;;;;21.75;7.68;;;;;;;8.15;74.97;101592.69;5070270;28;20082;-52
2023/04/18 03:14:50;;;;;;;20.05;8.10;;;;;;;8.17;74.34;101595.31;5060600;28;20094;-52
2023/04/18 03:17:17;;;;;;;19.52;7.18;;;;;;;8.15;75.16;101600.44;5060839;28;20528;-51
2023/04/18 03:19:45;;;;;;;22.73;8.10;;;;;;;8.13;74.54;101604.66;5058030;28;20045;-50
2023/04/18 03:22:12;;;;;;;21.52;8.35;;;;;;;8.08;75.39;101601.06;5064560;28;20052;-52
2023/04/18 03:24:39;;;;;;;22.40;7.18;;;;;;;8.07;75.59;101596.72;5062820;28;20045;-46
2023/04/18 03:27:06;;;;;;;23.20;8.90;;;;;;;8.04;75.71;101589.75;5055431;28;20068;-50
2023/04/18 03:29:33;;;;;;;24.88;7.90;;;;;;;8.06;74.65;101587.22;5058547;28;20496;-52
2023/04/18 03:31:59;;;;;;;20.27;8.00;;;;;;;8.08;75.80;101585.56;5060081;28;20045;-51
2023/04/18 03:34:26;;;;;;;25.73;9.13;;;;;;;8.07;74.64;101595.00;5059404;28;20118;-55
2023/04/18 03:36:53;;;;;;;24.35;8.13;;;;;;;8.10;73.94;101594.22;5057631;28;20052;-51
2023/04/18 03:39:19;;;;;;;24.52;8.43;;;;;;;8.06;74.96;101595.84;5054310;28;20083;-50
2023/04/18 03:41:46;;;;;;;20.85;8.10;;;;;;;8.05;74.47;101593.22;5058513;28;20455;-54
2023/04/18 03:44:12;;;;;;;17.40;7.13;;;;;;;8.05;74.92;101593.22;5056543;28;20393;-52
2023/04/18 03:46:40;;;;;;;21.30;8.00;;;;;;;7.95;75.48;101602.34;5059683;28;20076;-51
2023/04/18 03:49:07;;;;;;;15.95;6.65;;;;;;;7.96;75.84;101593.78;5059521;28;20048;-52
2023/04/18 03:51:42;;;;;;;21.17;8.10;;;;;;;7.95;75.52;101592.03;5064484;28;20072;-54
2023/04/18 03:54:09;;;;;;;25.65;9.65;;;;;;;7.96;75.37;101594.66;5060501;28;20040;-52
2023/04/18 03:56:35;;;;;;;20.95;7.25;;;;;;;7.92;75.81;101587.66;5057889;28;20056;-52
2023/04/18 03:59:02;;;;;;;22.10;8.00;;;;;;;7.96;75.87;101599.81;5064333;28;20048;-52
2023/04/18 04:01:28;;;;;;;22.55;7.90;;;;;;;8.00;75.95;101599.94;5064118;28;20048;-49
2023/04/18 04:03:55;;;;;;;22.80;8.05;;;;;;;8.01;75.17;101597.41;5067009;28;20488;-48
2023/04/18 04:06:22;;;;;;;18.25;7.28;;;;;;;7.98;75.19;101599.88;5072778;28;20051;-50
2023/04/18 04:08:48;;;;;;;23.88;10.07;;;;;;;8.01;75.68;101596.53;5067376;28;20063;-49
2023/04/18 04:11:16;;;;;;;22.27;8.60;;;;;;;8.02;74.65;101593.09;5069245;28;20883;-46
2023/04/18 04:13:43;;;;;;;26.33;8.25;;;;;;;8.00;75.07;101594.78;5069547;28;20056;-49
2023/04/18 04:16:09;;;;;;;21.40;8.20;;;;;;;8.02;74.62;101593.09;5067739;28;20117;-51
2023/04/18 04:18:36;;;;;;;22.60;8.40;;;;;;;8.03;75.74;101598.31;5070902;28;20063;-54
2023/04/18 04:21:04;;;;;;;20.83;8.38;;;;;;;8.05;74.87;101598.38;5077229;28;20168;-47
2023/04/18 04:23:30;;;;;;;23.08;8.90;;;;;;;8.06;74.43;101593.25;5061916;28;20459;-49
2023/04/18 04:25:58;;;;;;;23.02;9.15;;;;;;;8.09;74.44;101589.91;5067967;28;20125;-49
2023/04/18 04:28:25;;;;;;;25.83;8.43;;;;;;;8.10;75.40;101591.66;5065409;28;20419;-48
2023/04/18 04:30:52;;;;;;;24.83;9.02;;;;;;;8.10;74.95;101591.66;5064052;28;20084;-53
2023/04/18 04:33:20;;;;;;;23.23;8.27;;;;;;;8.12;74.73;101584.84;5063941;28;20063;-47
2023/04/18 04:35:46;;;;;;;23.17;8.25;;;;;;;8.09;74.30;101585.63;5066031;28;20052;-53
2023/04/18 04:38:14;;;;;;;25.15;8.65;;;;;;;8.09;74.42;101590.78;5067753;28;20045;-51
2023/04/18 04:40:41;;;;;;;24.73;9.30;;;;;;;8.12;73.77;101582.25;5067704;28;20485;-50
2023/04/18 04:43:14;;;;;;;24.65;8.95;;;;;;;8.13;74.02;101576.25;5064356;28;20048;-49
2023/04/18 04:45:41;;;;;;;26.20;9.27;;;;;;;8.16;73.89;101585.81;5062919;28;20123;-49
2023/04/18 04:48:09;;;;;;;24.65;9.48;;;;;;;8.17;74.58;101588.44;5059356;28;20051;-47
2023/04/18 04:50:37;;;;;;;25.52;8.90;;;;;;;8.17;74.38;101585.84;5069193;28;20143;-54
2023/04/18 04:53:05;;;;;;;22.33;9.10;;;;;;;8.13;74.35;101590.84;5062017;28;20155;-52
2023/04/18 04:55:32;;;;;;;25.80;8.90;;;;;;;8.08;74.63;101591.59;5058830;28;20045;-52
2023/04/18 04:57:59;;;;;;;26.95;9.43;;;;;;;8.03;73.59;101594.84;5059392;28;20087;-52
2023/04/18 05:00:27;;;;;;;22.63;8.02;;;;;;;7.98;74.03;101593.00;5057677;28;20757;-55
2023/04/18 05:02:56;;;;;;;23.30;8.68;;;;;;;7.98;73.54;101582.69;5065009;28;20045;-49
2023/04/18 05:05:23;;;;;;;22.15;7.82;;;;;;;7.92;72.97;101581.59;5066004;28;20544;-49
2023/04/18 05:07:49;;;;;;;23.02;8.93;;;;;;;7.92;72.92;101577.34;5064615;28;20071;-49
2023/04/18 05:10:16;;;;;;;25.50;8.45;;;;;;;7.92;72.86;101582.50;5061664;28;20049;-52
2023/04/18 05:12:43;;;;;;;20.02;7.47;;;;;;;7.84;73.95;101578.78;5059514;28;20056;-49
2023/04/18 05:15:10;;;;;;;21.58;6.47;;;;;;;7.81;73.36;101584.69;5058328;28;20470;-50
2023/04/18 05:17:36;;;;;;;18.42;8.55;;;;;;;7.81;72.84;101573.53;5061456;28;20080;-49
2023/04/18 05:20:04;;;;;;;22.50;8.77;;;;;;;7.80;73.34;101576.94;5057543;28;20059;-51
2023/04/18 05:22:31;;;;;;;24.60;8.43;;;;;;;7.82;73.26;101575.25;5063230;28;20699;-49
2023/04/18 05:24:57;;;;;;;24.95;7.97;;;;;;;7.85;73.06;101596.00;5064812;28;20053;-50
2023/04/18 05:27:24;;;;;;;22.63;8.68;;;;;;;7.81;73.34;101584.69;5063410;28;20446;-48
2023/04/18 05:29:51;;;;;;;22.92;8.93;;;;;;;7.81;73.86;101589.00;5063111;28;20066;-53
2023/04/18 05:32:18;;;;;;;22.45;8.38;;;;;;;7.83;73.47;101592.50;5059733;28;20072;-52
2023/04/18 05:34:45;;;;;;;22.17;9.02;;;;;;;7.87;73.42;101593.47;5063103;28;20052;-53
2023/04/18 05:37:12;;;;;;;27.80;9.30;;;;;;;7.89;73.41;101592.72;5065954;28;20487;-50
2023/04/18 05:39:39;;;;;;;24.10;8.27;;;;;;;7.88;72.82;101598.69;5056929;28;20136;-53
2023/04/18 05:42:06;;;;;;;18.35;7.13;;;;;;;7.84;73.03;101584.81;5060683;28;20048;-52
2023/04/18 05:44:32;;;;;;;24.73;8.85;;;;;;;7.86;73.62;101597.75;5061107;28;20071;-50
2023/04/18 05:46:59;;;;;;;20.08;7.97;;;;;;;7.84;73.37;101600.28;5056808;28;20076;-51
2023/04/18 05:49:26;;;;;;;24.40;9.18;;;;;;;7.84;73.94;101602.00;5063213;28;20053;-52
2023/04/18 05:51:53;;;;;;;23.88;7.72;;;;;;;7.83;73.93;101602.81;5058022;28;20187;-50
2023/04/18 05:54:20;;;;;;;19.48;8.23;;;;;;;7.82;73.96;101606.22;5059111;28;20433;-53
2023/04/18 05:56:47;;;;;;;17.63;6.35;;;;;;;7.78;73.74;101606.94;5054021;28;20048;-54
2023/04/18 05:59:13;;;;;;;18.63;7.88;;;;;;;7.79;73.95;101607.00;5065749;28;20130;-51
2023/04/18 06:01:40;;;;;;;23.52;8.13;;;;;;;7.82;74.00;101601.06;5060757;28;20145;-52
2023/04/18 06:04:07;;;;;;;21.52;8.18;;;;;;;7.88;72.48;101601.28;5061796;28;20099;-54
2023/04/18 06:06:35;;;;;;;28.42;8.63;;;;;;;7.88;73.32;101601.28;5065544;28;20482;-54
2023/04/18 06:09:01;;;;;;;19.55;8.13;;;;;;;7.88;74.23;101605.56;5058936;28;20131;-49
2023/04/18 06:11:28;;;;;;;17.67;7.43;;;;;;;7.81;73.28;101601.91;5057752;28;20444;-52
2023/04/18 06:13:55;;;;;;;16.92;6.57;;;;;;;7.81;73.74;101604.47;5059579;28;20045;-53
2023/04/18 06:16:21;;;;;;;25.10;8.90;;;;;;;7.85;73.01;101601.16;5059048;28;20075;-51
2023/04/18 06:18:48;;;;;;;22.23;8.25;;;;;;;7.91;72.62;101600.50;5057115;28;20044;-52
2023/04/18 06:21:15;;;;;;;23.42;9.68;;;;;;;7.90;73.04;101602.19;5052225;28;20094;-54
2023/04/18 06:23:41;;;;;;;23.60;7.78;;;;;;;7.89;74.35;101597.88;5062058;28;20087;-51
2023/04/18 06:26:08;;;;;;;24.23;8.52;;;;;;;7.94;74.21;101596.31;5065362;28;20175;-49
2023/04/18 06:28:35;;;;;;;25.08;9.05;;;;;;;8.05;72.92;101598.38;5055651;28;20053;-53
2023/04/18 06:31:01;;;;;;;19.05;8.20;;;;;;;8.18;73.58;101600.50;5065574;28;20076;-48
2023/04/18 06:33:28;;;;;;;21.67;8.68;;;;;;;8.27;73.49;101599.06;5044341;28;20063;-50
2023/04/18 06:35:54;;;;;;;22.48;7.60;;;;;;;8.29;73.05;101610.31;5056312;28;20065;-53
2023/04/18 06:38:21;;;;;;;23.25;8.80;;;;;;;8.27;72.45;101605.09;5053009;28;20072;-54
2023/04/18 06:40:48;;;;;;;23.17;8.15;;;;;;;8.29;72.61;101607.72;5049610;28;20065;-52
2023/04/18 06:43:14;;;;;;;25.13;9.02;;;;;;;8.29;72.71;101610.31;5054196;28;20466;-54
2023/04/18 06:45:41;;;;;;;19.42;7.38;;;;;;;8.30;72.19;101614.63;5054722;28;20103;-50
2023/04/18 06:48:09;;;;;;;21.35;7.60;;;;;;;8.31;72.63;101606.94;5051047;28;20048;-51
2023/04/18 06:50:36;;;;;;;22.42;9.40;;;;;;;8.35;72.23;101613.09;5050348;28;20053;-49
2023/04/18 06:53:02;;;;;;;19.25;7.80;;;;;;;8.28;72.74;101617.16;5059099;28;20131;-55
2023/04/18 06:55:29;;;;;;;18.77;7.60;;;;;;;8.39;71.60;101614.06;5058759;28;20052;-53
2023/04/18 06:57:56;;;;;;;18.23;8.32;;;;;;;8.47;71.86;101628.09;5050199;28;20063;-53
2023/04/18 07:00:22;;;;;;;21.65;9.02;;;;;;;8.83;72.13;101612.00;5047781;28;20089;-51
2023/04/18 07:02:49;;;;;;;19.63;8.45;;;;;;;9.06;71.11;101616.09;5054379;28;20539;-53
2023/04/18 07:05:16;;;;;;;22.65;9.25;;;;;;;9.10;71.00;101610.19;5052122;28;20074;-54
2023/04/18 07:07:43;;;;;;;18.95;9.15;;;;;;;9.06;70.49;101608.34;5053103;28;20075;-50
2023/04/18 07:10:10;;;;;;;21.77;8.38;;;;;;;8.99;70.19;101610.72;5052804;28;20079;-52
2023/04/18 07:12:37;;;;;;;28.55;10.07;;;;;;;8.94;70.58;101614.91;5055437;28;20048;-53
2023/04/18 07:15:04;;;;;;;28.67;10.50;;;;;;;9.04;70.50;101615.16;5060242;28;20071;-54
2023/04/18 07:17:30;;;;;;;20.35;8.68;;;;;;;9.50;70.30;101615.59;5054188;28;21582;-54
2023/04/18 07:19:57;;;;;;;18.98;8.15;;;;;;;10.06;69.87;101613.56;5054041;28;20063;-55
2023/04/18 07:22:25;;;;;;;24.40;9.07;;;;;;;10.48;68.55;101604.19;5055198;28;20056;-54
2023/04/18 07:24:51;;;;;;;24.98;9.10;;;;;;;10.89;68.37;101609.41;5055690;28;20484;-53
2023/04/18 07:27:18;;;;;;;21.00;8.10;;;;;;;11.05;66.61;101609.72;5049914;28;20749;-53
2023/04/18 07:29:44;;;;;;;23.80;8.93;;;;;;;11.18;66.52;101614.31;5052995;28;20514;-54
2023/04/18 07:32:12;;;;;;;22.58;8.98;;;;;;;11.23;66.23;101617.00;5056959;28;20081;-55
2023/04/18 07:34:39;;;;;;;20.20;9.00;;;;;;;11.14;65.36;101611.63;5054015;28;20819;-50
2023/04/18 07:37:06;;;;;;;23.25;8.98;;;;;;;11.47;65.77;101615.72;5058492;28;20131;-55
2023/04/18 07:39:34;;;;;;;22.70;8.82;;;;;;;12.03;65.88;101611.50;5055460;28;20504;-52
2023/04/18 07:42:03;;;;;;;20.05;8.30;;;;;;;12.52;65.15;101615.75;5057285;28;20455;-53
2023/04/18 07:44:34;;;;;;;16.42;7.13;;;;;;;12.90;63.25;101618.84;5063971;28;20045;-56
2023/04/18 07:47:01;;;;;;;22.15;8.73;;;;;;;13.30;62.99;101606.31;5063934;28;20071;-56
2023/04/18 07:49:28;;;;;;;19.63;7.82;;;;;;;13.67;61.75;101610.16;5060208;28;20115;-54
2023/04/18 07:51:54;;;;;;;19.75;8.48;;;;;;;13.85;61.19;101609.47;5062292;28;20698;-54
2023/04/18 07:54:21;;;;;;;18.33;6.97;;;;;;;13.97;60.70;101609.59;5057534;28;20098;-54
2023/04/18 07:56:48;;;;;;;17.45;7.70;;;;;;;14.17;60.47;101615.78;5057786;28;20090;-54
2023/04/18 07:59:14;;;;;;;21.52;7.85;;;;;;;14.24;59.82;101612.38;5057087;28;20075;-54
2023/04/18 08:01:42;;;;;;;19.17;8.75;;;;;;;14.19;59.74;101609.72;5058338;28;20057;-53
2023/04/18 08:04:08;;;;;;;21.17;8.20;;;;;;;14.43;59.34;101612.50;5057975;28;20704;-55
2023/04/18 08:06:35;;;;;;;20.58;8.80;;;;;;;14.62;58.44;101609.16;5054643;28;20397;-55
2023/04/18 08:09:04;;;;;;;17.67;7.22;;;;;;;14.73;58.41;101600.50;5056838;28;20052;-57
2023/04/18 08:11:32;;;;;;;18.05;7.65;;;;;;;14.93;58.03;101607.59;5058763;28;20052;-54
2023/04/18 08:13:58;;;;;;;20.77;8.25;;;;;;;15.39;58.02;101607.72;5060318;28;20044;-52
2023/04/18 08:16:25;;;;;;;17.80;8.00;;;;;;;15.80;56.32;101603.44;5058257;28;20083;-52
2023/04/18 08:18:52;;;;;;;18.70;8.30;;;;;;;16.05;55.93;101613.03;5060015;28;20049;-51
2023/04/18 08:21:19;;;;;;;18.65;7.70;;;;;;;15.87;54.71;101609.53;5062477;28;20045;-53
2023/04/18 08:23:45;;;;;;;17.85;8.88;;;;;;;15.54;55.32;101614.72;5062066;28;20460;-57
2023/04/18 08:26:13;;;;;;;19.55;8.55;;;;;;;15.20;55.90;101621.59;5053249;28;20459;-53
2023/04/18 08:28:40;;;;;;;18.52;8.43;;;;;;;14.92;54.68;101605.84;5059361;28;20136;-52
2023/04/18 08:31:11;;;;;;;18.63;8.35;;;;;;;14.70;55.65;101610.91;5055478;28;20455;-55
2023/04/18 08:33:38;;;;;;;23.30;8.95;;;;;;;14.97;55.72;101609.34;5056267;28;20427;-54
2023/04/18 08:36:06;;;;;;;18.98;8.18;;;;;;;15.24;55.07;101599.88;5055588;28;20048;-53
2023/04/18 08:38:33;;;;;;;19.33;8.68;;;;;;;15.38;54.77;101607.72;5069871;28;20076;-50
2023/04/18 08:41:00;;;;;;;18.83;8.85;;;;;;;15.72;54.73;101599.06;5048940;28;20044;-54
2023/04/18 08:43:30;;;;;;;18.98;9.70;;;;;;;16.16;53.85;101606.06;5046195;28;20672;-51
2023/04/18 08:45:58;;;;;;;20.90;10.45;;;;;;;16.70;54.91;101602.47;5062483;28;20048;-51
2023/04/18 08:48:27;;;;;;;16.75;7.47;;;;;;;17.08;52.99;101610.16;5063156;28;20045;-55
2023/04/18 08:50:58;;;;;;;17.05;7.90;;;;;;;16.94;50.95;101595.38;5065060;28;20051;-49
2023/04/18 08:53:25;;;;;;;21.35;8.82;;;;;;;16.65;51.59;101598.13;5062464;28;20044;-53
2023/04/18 08:55:55;;;;;;;19.88;7.90;;;;;;;16.57;51.33;101600.75;5063890;28;20111;-53
2023/04/18 08:58:23;;;;;;;16.17;7.53;;;;;;;16.52;51.56;101595.50;5063504;28;20048;-54
2023/04/18 09:00:52;;;;;;;15.00;7.00;;;;;;;16.63;51.38;101595.50;5060683;28;20646;-55
2023/04/18 09:03:38;;;;;;;16.02;7.53;;;;;;;16.89;50.03;101591.06;5062308;28;20090;-47
2023/04/18 09:06:07;;;;;;;13.02;6.05;;;;;;;17.09;49.75;101593.59;5057647;28;20066;-50
2023/04/18 09:08:36;;;;;;;16.42;7.60;;;;;;;17.27;49.89;101589.13;5063949;28;20147;-54
2023/04/18 09:11:24;;;;;;;18.10;8.48;;;;;;;17.41;49.41;101594.28;5061787;28;20097;-52
2023/04/18 09:13:52;;;;;;;14.82;8.45;;;;;;;17.58;48.15;101594.16;5055361;28;20067;-50
2023/04/18 09:16:21;;;;;;;16.70;8.05;;;;;;;17.70;48.79;101591.44;5064915;28;20052;-55
2023/04/18 09:19:09;;;;;;;14.80;6.13;;;;;;;17.72;47.89;101584.47;5059715;28;20608;-54
2023/04/18 09:21:40;;;;;;;17.52;6.95;;;;;;;17.81;48.65;101578.28;5046454;28;20070;-54
2023/04/18 09:24:19;;;;;;;17.55;6.65;;;;;;;17.94;48.27;101586.03;5057346;28;20048;-52
2023/04/18 09:26:48;;;;;;;12.77;7.30;;;;;;;18.30;49.68;101581.31;5054796;28;20045;-53
2023/04/18 09:29:17;;;;;;;14.18;7.53;;;;;;;18.60;47.87;101583.63;5059650;28;20551;-51
2023/04/18 09:32:00;;;;;;;12.30;6.68;;;;;;;18.69;46.00;101580.03;5062921;28;20057;-53
2023/04/18 09:34:27;;;;;;;12.73;6.32;;;;;;;18.64;46.52;101564.31;5062742;28;20057;-56
2023/04/18 09:37:12;;;;;;;12.45;6.60;;;;;;;18.53;44.80;101571.47;5056188;28;20094;-48
2023/04/18 09:39:43;;;;;;;12.15;7.07;;;;;;;18.42;45.38;101572.47;5056665;28;20095;-52
2023/04/18 09:42:11;;;;;;;12.98;6.30;;;;;;;18.44;45.74;101564.59;5053551;28;20060;-48
2023/04/18 09:44:57;;;;;;;13.75;7.30;;;;;;;18.62;45.83;101566.97;5060055;28;20053;-54
2023/04/18 09:47:26;;;;;;;12.93;7.32;;;;;;;18.46;45.28;101571.53;5056962;28;20068;-50
2023/04/18 09:49:53;;;;;;;12.25;6.80;;;;;;;18.29;45.45;101562.97;5058446;28;20197;-49
2023/04/18 09:52:21;;;;;;;11.55;5.93;;;;;;;18.21;44.40;101556.06;5058478;28;20047;-58
2023/04/18 09:54:57;;;;;;;10.43;5.82;;;;;;;18.06;44.13;101561.44;5057619;28;20487;-54
2023/04/18 09:57:28;;;;;;;10.68;5.93;;;;;;;18.02;44.14;101554.47;5057301;28;20385;-53
2023/04/18 10:00:12;;;;;;;12.43;7.40;;;;;;;18.16;45.76;101547.38;5060834;28;20084;-52
2023/04/18 10:02:47;;;;;;;12.05;6.00;;;;;;;18.30;44.57;101544.59;5066678;28;20049;-51
2023/04/18 10:05:14;;;;;;;10.95;6.68;;;;;;;18.26;43.75;101536.78;5060218;28;20051;-51
2023/04/18 10:07:43;;;;;;;12.95;6.45;;;;;;;18.24;44.33;101544.69;5058526;28;20053;-53
2023/04/18 10:10:11;;;;;;;8.98;4.85;;;;;;;18.15;44.25;101526.44;5055384;28;20118;-53
2023/04/18 10:12:39;;;;;;;9.65;5.82;;;;;;;18.09;44.43;101520.38;5061073;28;20052;-50
2023/04/18 10:15:08;;;;;;;15.50;6.22;;;;;;;18.03;43.59;101515.16;5055313;28;20052;-53
2023/04/18 10:17:57;;;;;;;13.15;6.93;;;;;;;17.93;41.76;101517.00;5064438;28;20040;-52
2023/04/18 10:20:31;;;;;;;11.10;5.40;;;;;;;17.90;40.32;101519.63;5058481;28;20060;-51
2023/04/18 10:22:58;;;;;;;12.18;6.60;;;;;;;17.89;41.42;101507.44;5061425;28;20569;-50
2023/04/18 10:28:08;;;;;;;11.70;5.40;;;;;;;18.07;40.84;101495.03;5062464;27;20414;-54
2023/04/18 10:38:45;;;;;;;9.77;5.50;;;;;;;17.65;37.83;101487.56;5046329;27;20415;-54
2023/04/18 10:44:13;;;;;;;10.48;6.65;;;;;;;17.81;35.58;101483.94;5082384;27;20447;-55
2023/04/18 10:49:22;;;;;;;8.82;4.80;;;;;;;17.58;36.92;101474.53;5060472;27;20395;-56
2023/04/18 10:51:57;;;;;;;7.85;4.30;;;;;;;17.56;36.92;101475.44;5046027;27;20060;-52
2023/04/18 10:54:50;;;;;;;9.55;6.25;;;;;;;17.57;36.70;101495.50;5052802;28;20509;-54
2023/04/18 10:57:17;;;;;;;7.13;4.93;;;;;;;17.63;37.39;101460.53;5043647;28;20096;-51
2023/04/18 10:59:48;;;;;;;9.90;5.00;;;;;;;17.51;37.59;101469.34;5053596;28;20049;-51
2023/04/18 11:02:24;;;;;;;10.88;5.55;;;;;;;17.43;36.78;101472.91;5048921;28;20045;-56
2023/04/18 11:04:53;;;;;;;14.13;4.72;;;;;;;17.58;38.96;101466.69;5041916;28;20740;-56
2023/04/18 11:07:39;;;;;;;8.85;6.05;;;;;;;17.67;38.26;101470.94;5045678;28;20157;-58
2023/04/18 11:10:08;;;;;;;8.00;4.68;;;;;;;17.75;37.83;101459.53;5052397;28;20076;-50
2023/04/18 11:12:37;;;;;;;7.97;4.63;;;;;;;17.77;38.30;101471.75;5054376;28;20127;-53
2023/04/18 11:15:20;;;;;;;9.85;5.38;;;;;;;17.76;36.69;101456.03;5044639;28;20111;-52
2023/04/18 11:20:47;;;;;;;9.50;5.32;;;;;;;17.41;36.25;101458.97;5039978;27;20406;-53
2023/04/18 11:23:17;;;;;;;11.27;5.30;;;;;;;17.39;37.85;101460.72;5013907;28;20053;-56
2023/04/18 11:25:44;;;;;;;11.07;4.97;;;;;;;17.39;37.60;101471.19;5015625;28;20057;-52
2023/04/18 11:28:12;;;;;;;8.27;4.63;;;;;;;17.38;38.02;101468.59;5010953;28;20057;-55
2023/04/18 11:30:40;;;;;;;10.27;5.40;;;;;;;17.40;38.46;101472.97;5012812;28;20053;-57
2023/04/18 11:33:10;;;;;;;10.60;5.35;;;;;;;17.41;38.96;101463.34;5015960;28;20516;-54
2023/04/18 11:35:38;;;;;;;9.98;5.50;;;;;;;17.41;38.41;101468.56;4995936;28;20041;-55
2023/04/18 11:38:07;;;;;;;11.75;6.10;;;;;;;17.36;38.22;101460.75;4994119;28;20108;-54
2023/04/18 11:40:36;;;;;;;9.13;5.32;;;;;;;17.24;38.76;101453.88;5017607;28;20128;-58
2023/04/18 11:43:04;;;;;;;11.52;5.30;;;;;;;17.37;38.97;101456.38;5016725;28;20497;-54
2023/04/18 11:45:31;;;;;;;9.80;4.97;;;;;;;17.36;38.70;101444.19;5015023;28;20092;-54